»·PEaware :: JUS326 KBOI-KGEG

JUS326 :: KBOI-KGEG

FLIGHT INFORMATION

Flight Status: Arrived
Operator:
USA Jet
More flights by this operator :: More flights under this callsign
Pilot: Erik S. (3779)
Aircraft: BOEING 737-300
(B733)
More flights by this aircraft type
Origin: KBOI Boise Air Terminal/Gowen
United States
Destination: KGEG Spokane Intl
United States
More flights between these airports :: More routes between these airports
Route: +BOI3 DEETZ ODYSY
File this flight plan on PilotEdge
Remarks:
Altitude:
(Current/Filed)
30,000ft
Speed:
(Current/Filed)
400kts
Departed: 16-Feb-18 09:49 AM
Arrived: 16-Feb-18 10:52 AM
Distance/Time
Traveled:
250nm/1:03
Distance/Time
To Go:
Arrived

Flight Plot

Page will automatically refresh every two minutes.

Flight plan parsing failed; only flown route is shown


Map Options




Map Legend


Flown Route
Filed Route
Departure Airport
Arrival Airport
Navaid (VOR, NDB)
Fix

Horizontal Profiles

Position Reports

Time Latitude Longitude Heading Altitude Ground
Speed
16-Feb-18 09:44 43.567201 -116.243664 270 2878ft 0kts
16-Feb-18 09:45 43.567201 -116.243664 270 2878ft 0kts
16-Feb-18 09:46 43.567201 -116.243664 270 2878ft 0kts
16-Feb-18 09:47 43.567201 -116.243664 270 2878ft 0kts
16-Feb-18 09:48 43.567201 -116.243664 270 2878ft 0kts
16-Feb-18 09:49 43.567201 -116.243664 270 2878ft 0kts
16-Feb-18 09:50 43.567201 -116.243664 270 2878ft 0kts
16-Feb-18 09:51 43.567201 -116.243664 270 2878ft 0kts
16-Feb-18 09:52 43.567201 -116.243664 270 2878ft 0kts
16-Feb-18 09:53 43.567201 -116.243664 270 2878ft 0kts
16-Feb-18 09:54 43.567629 -116.243994 58 2878ft 10kts
16-Feb-18 09:55 43.568988 -116.242644 358 2878ft 3kts
16-Feb-18 09:56 43.567511 -116.235191 115 2878ft 104kts
16-Feb-18 09:57 43.552798 -116.180399 112 5465ft 172kts
16-Feb-18 09:58 43.528145 -116.096999 119 8208ft 233kts
16-Feb-18 09:59 43.500231 -116.019743 119 9923ft 296kts
16-Feb-18 10:00 43.458872 -115.914237 119 12292ft 349kts
16-Feb-18 10:01 43.412902 -115.789692 113 14811ft 380kts
16-Feb-18 10:02 43.376764 -115.650543 89 17323ft 397kts
16-Feb-18 10:03 43.434103 -115.539541 8 19578ft 368kts
16-Feb-18 10:04 43.527116 -115.570801 336 21791ft 357kts
16-Feb-18 10:05 43.619920 -115.614555 336 23905ft 363kts
16-Feb-18 10:06 43.715900 -115.660032 336 25997ft 365kts
16-Feb-18 10:07 43.809853 -115.704715 336 28288ft 355kts
16-Feb-18 10:08 43.901495 -115.748471 336 30107ft 352kts
16-Feb-18 10:09 43.997683 -115.794616 336 30225ft 386kts
16-Feb-18 10:10 44.101589 -115.844525 337 30299ft 402kts
16-Feb-18 10:11 44.208240 -115.895968 337 30296ft 405kts
16-Feb-18 10:12 44.313680 -115.947036 337 30224ft 405kts
16-Feb-18 10:13 44.418633 -115.998051 337 30187ft 400kts
16-Feb-18 10:14 44.524203 -116.049577 337 30206ft 402kts
16-Feb-18 10:15 44.628597 -116.100599 336 30206ft 404kts
16-Feb-18 10:16 44.732867 -116.151249 336 30174ft 399kts
16-Feb-18 10:17 44.837995 -116.203128 336 30211ft 403kts
16-Feb-18 10:18 44.942581 -116.254951 336 30207ft 404kts
16-Feb-18 10:19 45.048440 -116.307604 335 30204ft 405kts
16-Feb-18 10:20 45.154731 -116.360699 335 30194ft 408kts
16-Feb-18 10:21 45.261132 -116.414048 334 30192ft 407kts
16-Feb-18 10:22 45.367615 -116.467611 334 28920ft 399kts
16-Feb-18 10:23 45.472271 -116.520543 334 27435ft 405kts
16-Feb-18 10:24 45.578151 -116.574228 335 25917ft 410kts
16-Feb-18 10:25 45.684891 -116.628502 335 24411ft 403kts
16-Feb-18 10:26 45.789859 -116.682220 335 22928ft 406kts
16-Feb-18 10:27 45.894497 -116.735934 335 21631ft 397kts
16-Feb-18 10:28 45.997598 -116.789098 335 20334ft 392kts
16-Feb-18 10:29 46.098802 -116.841486 335 19040ft 385kts
16-Feb-18 10:30 46.198731 -116.893418 335 17742ft 380kts
16-Feb-18 10:31 46.297105 -116.944735 335 16443ft 374kts
16-Feb-18 10:32 46.394306 -116.995646 335 15283ft 373kts
16-Feb-18 10:33 46.491110 -117.046520 335 14288ft 369kts
16-Feb-18 10:34 46.587092 -117.097083 335 14096ft 369kts
16-Feb-18 10:35 46.683548 -117.147458 334 14101ft 368kts
16-Feb-18 10:36 46.779512 -117.198401 334 14101ft 368kts
16-Feb-18 10:37 46.874915 -117.249302 334 14103ft 368kts
16-Feb-18 10:38 46.970420 -117.300717 335 14101ft 365kts
16-Feb-18 10:39 47.065436 -117.352234 335 14096ft 364kts
16-Feb-18 10:40 47.159845 -117.404921 335 14055ft 364kts
16-Feb-18 10:41 47.254700 -117.448496 354 13968ft 369kts
16-Feb-18 10:42 47.331155 -117.358850 54 11627ft 368kts
16-Feb-18 10:43 47.395243 -117.265765 14 10240ft 292kts
16-Feb-18 10:44 47.470485 -117.223309 14 8170ft 289kts
16-Feb-18 10:45 47.545446 -117.185635 14 6301ft 281kts
16-Feb-18 10:46 47.613063 -117.153739 14 6073ft 240kts
16-Feb-18 10:47 47.676175 -117.123641 14 6043ft 238kts
16-Feb-18 10:48 47.737477 -117.120645 334 5378ft 218kts
16-Feb-18 10:49 47.791892 -117.152292 334 5068ft 206kts
16-Feb-18 10:50 47.841754 -117.191027 300 5023ft 198kts
16-Feb-18 10:51 47.820775 -117.249658 214 5083ft 176kts
16-Feb-18 10:52 47.781613 -117.291619 220 5028ft 174kts
16-Feb-18 10:53 47.747270 -117.342223 225 5035ft 174kts
16-Feb-18 10:54 47.717256 -117.388377 225 4856ft 122kts
16-Feb-18 10:55 47.695356 -117.421563 225 4203ft 111kts
16-Feb-18 10:56 47.673626 -117.454357 225 3593ft 111kts
16-Feb-18 10:57 47.652070 -117.486937 224 2994ft 110kts
16-Feb-18 10:58 47.630329 -117.519627 223 2390ft 111kts
16-Feb-18 10:59 47.620056 -117.538496 320 2382ft 19kts

Navigation Log

Ident Type
Flight plan parsing failed, navigation log unavailable